Time;durP1;ratioP1;P1;durP2;ratioP2;P2;SDS_P1;SDS_P2;PMS_P1;PMS_P2;Temp;Humidity;BMP_temperature;BMP_pressure;BME280_temperature;BME280_humidity;BME280_pressure;Samples;Min_cycle;Max_cycle;Signal;HPM_P1;HPM_P2
2022/05/02 00:13:25;;;;;;;14.97;4.57;;;;;;;11.34;55.39;100842.20;709471;1184;115057;-71
2022/05/02 00:28:29;;;;;;;9.70;5.45;;;;;;;11.33;55.81;100838.72;709767;1181;115780;-73
2022/05/02 00:43:33;;;;;;;9.80;4.55;;;;;;;11.19;56.31;100831.17;709465;1183;115067;-73
2022/05/02 00:58:37;;;;;;;7.95;4.55;;;;;;;11.07;56.63;100837.41;709350;1184;114159;-73
2022/05/02 01:13:44;;;;;;;10.30;4.63;;;;;;;10.98;57.29;100833.76;709203;1182;114633;-73
2022/05/02 01:28:54;;;;;;;8.00;4.40;;;;;;;10.70;58.70;100835.13;709341;1182;115674;-72
2022/05/02 01:43:58;;;;;;;7.20;3.60;;;;;;;10.35;58.72;100831.73;709350;1181;115683;-75
2022/05/02 01:59:03;;;;;;;8.70;4.30;;;;;;;9.96;59.96;100825.96;709772;1182;114818;-72
2022/05/02 02:14:06;;;;;;;10.00;4.50;;;;;;;9.65;61.07;100829.13;709206;1184;114786;-72
2022/05/02 02:29:10;;;;;;;9.37;5.00;;;;;;;9.38;62.75;100825.97;709558;1183;115677;-72
2022/05/02 02:44:14;;;;;;;8.65;4.95;;;;;;;9.12;63.76;100821.72;709269;1182;115388;-72
2022/05/02 02:59:17;;;;;;;9.60;4.95;;;;;;;8.95;63.59;100816.89;709558;1184;113913;-74
2022/05/02 03:14:21;;;;;;;9.73;4.83;;;;;;;8.90;65.25;100821.62;713420;1172;114658;-78
2022/05/02 03:29:25;;;;;;;10.50;5.20;;;;;;;8.71;65.20;100833.41;709284;1182;115331;-77
2022/05/02 03:44:28;;;;;;;7.60;4.45;;;;;;;8.60;67.83;100831.53;709378;1180;115486;-76
2022/05/02 03:59:32;;;;;;;10.60;4.90;;;;;;;8.66;68.82;100832.90;709434;1184;114624;-77
2022/05/02 04:14:35;;;;;;;;;;;;;;;8.74;70.78;100848.88;709433;1181;115452;-77
2022/05/02 04:29:39;;;;;;;14.60;7.00;;;;;;;8.66;71.03;100859.88;709666;1181;101328;-78
2022/05/02 04:44:43;;;;;;;12.50;5.10;;;;;;;8.85;71.14;100860.36;709164;1176;114269;-79
2022/05/02 04:59:47;;;;;;;9.90;5.70;;;;;;;9.08;71.66;100856.92;709550;1182;114572;-78
2022/05/02 05:30:27;;;;;;;12.60;6.80;;;;;;;9.98;71.39;100842.42;709989;1180;114146;-81
2022/05/02 05:45:39;;;;;;;14.10;7.75;;;;;;;10.41;71.89;100841.75;711470;1182;114951;-77
2022/05/02 06:00:45;;;;;;;12.90;6.90;;;;;;;10.71;70.95;100848.13;709755;1180;114510;-79
2022/05/02 06:31:36;;;;;;;8.00;5.30;;;;;;;11.81;68.86;100842.66;710711;1182;116199;-77
2022/05/02 06:46:56;;;;;;;11.30;5.55;;;;;;;12.51;66.75;100854.33;710629;1184;114241;-80
2022/05/02 07:02:12;;;;;;;7.00;4.33;;;;;;;13.34;64.38;100846.12;712096;1183;114591;-81
2022/05/02 07:17:34;;;;;;;7.17;4.07;;;;;;;14.36;62.95;100842.83;711419;1182;114343;-76
2022/05/02 07:32:38;;;;;;;7.35;4.30;;;;;;;15.51;60.26;100837.05;710195;1181;114744;-77
2022/05/02 07:47:44;;;;;;;9.30;3.90;;;;;;;16.80;57.94;100839.65;709708;1181;114825;-77
2022/05/02 08:02:47;;;;;;;5.50;3.50;;;;;;;17.77;55.52;100830.22;709842;1181;114764;-73
2022/05/02 08:18:19;;;;;;;5.10;3.70;;;;;;;18.63;53.64;100831.25;710089;1182;115907;-78
2022/05/02 08:33:28;;;;;;;5.23;2.90;;;;;;;19.26;52.87;100825.02;709815;1183;114203;-80
2022/05/02 08:48:38;;;;;;;5.80;2.65;;;;;;;19.93;50.49;100818.89;710733;1180;114304;-77
2022/05/02 09:04:15;;;;;;;4.60;2.70;;;;;;;20.06;49.00;100796.95;709730;1181;114441;-79
2022/05/02 09:19:38;;;;;;;6.40;2.50;;;;;;;20.79;48.43;100788.15;710848;1183;115066;-79
2022/05/02 09:34:56;;;;;;;2.80;1.70;;;;;;;21.22;47.09;100776.60;713130;1181;115011;-80
2022/05/02 09:50:02;;;;;;;7.00;3.70;;;;;;;21.03;46.08;100754.92;713318;1184;115606;-80
2022/05/02 10:05:08;;;;;;;5.10;2.50;;;;;;;21.47;45.96;100746.81;712329;1184;114315;-80
2022/05/02 10:20:18;;;;;;;5.55;2.45;;;;;;;21.29;45.38;100726.80;711935;1184;115362;-80
2022/05/02 10:35:25;;;;;;;6.20;2.38;;;;;;;22.02;44.45;100696.98;712483;1183;114709;-79
2022/05/02 10:50:35;;;;;;;3.73;1.83;;;;;;;23.03;43.10;100678.38;713277;1183;114814;-80
2022/05/02 11:06:10;;;;;;;4.45;1.90;;;;;;;23.30;42.70;100663.13;712175;1184;115191;-79
2022/05/02 11:21:39;;;;;;;55.57;32.90;;;;;;;23.80;41.90;100649.13;709985;1183;115087;-78
2022/05/02 11:36:47;;;;;;;4.53;2.27;;;;;;;23.79;41.28;100625.23;710291;1184;114704;-77
2022/05/02 11:52:01;;;;;;;3.00;1.77;;;;;;;24.52;41.74;100610.52;710757;1181;114419;-76
2022/05/02 12:07:14;;;;;;;6.15;2.20;;;;;;;24.46;41.20;100587.28;710170;1183;114307;-79
2022/05/02 12:22:25;;;;;;;2.35;1.70;;;;;;;24.48;41.36;100569.10;710397;1182;115266;-80
2022/05/02 12:37:36;;;;;;;4.60;1.50;;;;;;;24.79;40.11;100538.70;712344;1180;114376;-80
2022/05/02 12:53:10;;;;;;;4.10;1.90;;;;;;;24.36;39.41;100534.16;712651;1182;114679;-80
2022/05/02 13:08:19;;;;;;;3.55;1.90;;;;;;;22.99;39.35;100525.52;711079;1180;115441;-80
2022/05/02 13:23:38;;;;;;;4.30;1.85;;;;;;;23.21;39.70;100512.67;712659;1180;114285;-81
2022/05/02 13:38:52;;;;;;;3.40;1.50;;;;;;;23.99;40.27;100517.98;709930;1181;115120;-79
2022/05/02 13:54:03;;;;;;;2.25;1.90;;;;;;;23.02;39.24;100487.63;710419;1183;114431;-78
2022/05/02 14:09:07;;;;;;;4.55;2.20;;;;;;;23.59;39.39;100476.23;710258;1182;115218;-76
2022/05/02 14:24:11;;;;;;;3.75;1.90;;;;;;;31.66;35.96;100464.12;710705;1180;114298;-77
2022/05/02 14:39:19;;;;;;;2.90;1.40;;;;;;;34.06;33.42;100445.18;711143;1180;114244;-80
2022/05/02 14:54:28;;;;;;;30.60;23.10;;;;;;;28.27;35.38;100417.55;710686;1180;115136;-78
2022/05/02 15:10:15;;;;;;;97.80;83.60;;;;;;;25.41;37.93;100396.28;710432;1182;115258;-80
2022/05/02 15:25:23;;;;;;;16.65;11.40;;;;;;;24.20;38.88;100380.11;710241;1180;114755;-78
2022/05/02 15:40:43;;;;;;;11.23;5.57;;;;;;;23.16;40.22;100365.37;710991;1182;116178;-79
2022/05/02 15:55:57;;;;;;;20.70;13.90;;;;;;;23.19;39.50;100345.39;710738;1180;115310;-80
2022/05/02 16:11:05;;;;;;;5.78;3.53;;;;;;;22.41;40.47;100344.56;710018;1181;114678;-77
2022/05/02 16:26:10;;;;;;;10.37;4.00;;;;;;;22.37;41.41;100321.94;710180;1182;114740;-79
2022/05/02 16:41:23;;;;;;;8.10;3.60;;;;;;;21.97;41.15;100322.88;710118;1183;114517;-79
2022/05/02 16:56:27;;;;;;;4.60;2.90;;;;;;;21.66;41.55;100310.23;709826;1182;115788;-79
2022/05/02 17:11:31;;;;;;;24.75;9.50;;;;;;;21.11;41.83;100296.07;710212;1184;114863;-78
2022/05/02 17:26:46;;;;;;;21.65;9.95;;;;;;;20.58;42.48;100290.61;709794;1183;116060;-77
2022/05/02 17:42:04;;;;;;;16.55;7.70;;;;;;;20.00;43.12;100294.48;710021;1184;115667;-78
2022/05/02 17:57:09;;;;;;;86.63;54.20;;;;;;;18.72;44.59;100281.98;710357;1181;114977;-76
2022/05/02 18:12:25;;;;;;;426.37;242.80;;;;;;;17.49;45.80;100286.94;710503;1180;114728;-75
2022/05/02 18:27:32;;;;;;;121.50;43.60;;;;;;;16.55;46.89;100290.61;710733;1182;116392;-76
2022/05/02 18:42:40;;;;;;;107.75;51.75;;;;;;;16.25;47.55;100284.30;710427;1181;115564;-75
2022/05/02 18:57:55;;;;;;;27.90;14.03;;;;;;;15.61;49.15;100283.31;710097;1183;116434;-78
2022/05/02 19:13:03;;;;;;;45.20;27.50;;;;;;;15.21;50.12;100278.89;709955;1184;116600;-77
2022/05/02 19:28:14;;;;;;;41.07;18.60;;;;;;;14.59;51.66;100277.48;710422;1181;114712;-78
2022/05/02 19:43:21;;;;;;;32.30;13.20;;;;;;;13.91;52.99;100268.64;710381;1181;116331;-77
2022/05/02 19:58:26;;;;;;;50.10;23.50;;;;;;;13.69;53.04;100265.58;710109;1182;115916;-77
2022/05/02 20:13:31;;;;;;;63.07;25.57;;;;;;;13.18;54.32;100259.28;710359;1184;114698;-78
2022/05/02 20:28:35;;;;;;;44.75;19.05;;;;;;;12.89;54.77;100253.27;711272;1182;115747;-78
2022/05/02 20:43:52;;;;;;;22.25;11.15;;;;;;;12.70;55.06;100248.99;711017;1184;115523;-79
2022/05/02 20:58:57;;;;;;;25.80;11.33;;;;;;;12.27;55.76;100245.25;710517;1181;115355;-77
2022/05/02 21:14:23;;;;;;;51.33;22.70;;;;;;;11.55;57.52;100274.70;710953;1183;114749;-78
2022/05/02 21:29:41;;;;;;;38.23;16.28;;;;;;;10.98;59.09;100278.08;711028;1184;115814;-77
2022/05/02 21:44:45;;;;;;;24.97;11.03;;;;;;;11.04;58.85;100289.81;711134;1181;115275;-79
2022/05/02 21:59:48;;;;;;;15.37;6.77;;;;;;;11.16;58.25;100298.38;710577;1180;114423;-77
2022/05/02 22:14:54;;;;;;;16.85;6.50;;;;;;;10.92;58.17;100302.23;711198;1180;114316;-79
2022/05/02 22:29:58;;;;;;;11.60;7.20;;;;;;;10.30;59.01;100285.80;709991;1180;114256;-77
2022/05/02 22:45:02;;;;;;;13.10;5.35;;;;;;;10.02;59.29;100275.08;709774;1180;115024;-77
2022/05/02 23:00:10;;;;;;;8.90;4.00;;;;;;;9.96;58.07;100276.45;709960;1182;115912;-76
2022/05/02 23:15:15;;;;;;;11.10;4.80;;;;;;;9.96;58.80;100257.26;710089;1184;116024;-76
2022/05/02 23:30:21;;;;;;;15.30;6.30;;;;;;;9.71;58.80;100263.77;710270;1182;114212;-78
2022/05/02 23:45:31;;;;;;;14.95;4.60;;;;;;;9.39;57.57;100262.89;709571;1181;115243;-76
